sensor_id;sensor_type;location;lat;lon;timestamp;P1;durP1;ratioP1;P2;durP2;ratioP2
55756;SDS011;41676;44.610;44.078;2022-10-31T00:04:34;4.18;;;2.72;;
55756;SDS011;41676;44.610;44.078;2022-10-31T00:09:35;4.38;;;2.63;;
55756;SDS011;41676;44.610;44.078;2022-10-31T00:14:36;4.82;;;2.67;;
55756;SDS011;41676;44.610;44.078;2022-10-31T00:19:37;4.47;;;2.50;;
55756;SDS011;41676;44.610;44.078;2022-10-31T00:24:37;2.83;;;1.85;;
55756;SDS011;41676;44.610;44.078;2022-10-31T00:29:38;4.35;;;1.95;;
55756;SDS011;41676;44.610;44.078;2022-10-31T00:34:39;3.03;;;1.83;;
55756;SDS011;41676;44.610;44.078;2022-10-31T00:39:40;4.40;;;1.88;;
55756;SDS011;41676;44.610;44.078;2022-10-31T00:44:40;2.80;;;1.65;;
55756;SDS011;41676;44.610;44.078;2022-10-31T00:49:41;2.58;;;1.63;;
55756;SDS011;41676;44.610;44.078;2022-10-31T00:54:42;2.88;;;1.58;;
55756;SDS011;41676;44.610;44.078;2022-10-31T00:59:43;2.20;;;1.20;;
55756;SDS011;41676;44.610;44.078;2022-10-31T01:04:43;4.70;;;1.67;;
55756;SDS011;41676;44.610;44.078;2022-10-31T01:09:44;2.40;;;1.17;;
55756;SDS011;41676;44.610;44.078;2022-10-31T01:14:45;2.92;;;1.15;;
55756;SDS011;41676;44.610;44.078;2022-10-31T01:19:46;2.38;;;1.30;;
55756;SDS011;41676;44.610;44.078;2022-10-31T01:24:46;3.03;;;1.38;;
55756;SDS011;41676;44.610;44.078;2022-10-31T01:29:47;3.03;;;1.40;;
55756;SDS011;41676;44.610;44.078;2022-10-31T01:34:48;2.47;;;1.20;;
55756;SDS011;41676;44.610;44.078;2022-10-31T01:39:49;2.75;;;1.40;;
55756;SDS011;41676;44.610;44.078;2022-10-31T01:45:00;4.95;;;1.73;;
55756;SDS011;41676;44.610;44.078;2022-10-31T01:50:03;2.85;;;1.35;;
55756;SDS011;41676;44.610;44.078;2022-10-31T01:55:14;4.88;;;1.50;;
55756;SDS011;41676;44.610;44.078;2022-10-31T02:00:19;2.67;;;1.45;;
55756;SDS011;41676;44.610;44.078;2022-10-31T02:05:22;6.05;;;2.00;;
55756;SDS011;41676;44.610;44.078;2022-10-31T02:10:26;3.25;;;1.67;;
55756;SDS011;41676;44.610;44.078;2022-10-31T02:15:27;4.30;;;2.08;;
55756;SDS011;41676;44.610;44.078;2022-10-31T02:31:51;3.65;;;1.90;;
55756;SDS011;41676;44.610;44.078;2022-10-31T02:47:15;2.72;;;1.60;;
55756;SDS011;41676;44.610;44.078;2022-10-31T02:52:23;3.47;;;1.52;;
55756;SDS011;41676;44.610;44.078;2022-10-31T02:57:30;3.42;;;1.83;;
55756;SDS011;41676;44.610;44.078;2022-10-31T03:02:54;2.83;;;1.48;;
55756;SDS011;41676;44.610;44.078;2022-10-31T03:08:46;4.43;;;1.45;;
55756;SDS011;41676;44.610;44.078;2022-10-31T03:14:01;2.90;;;1.58;;
55756;SDS011;41676;44.610;44.078;2022-10-31T03:19:10;3.15;;;1.75;;
55756;SDS011;41676;44.610;44.078;2022-10-31T03:24:26;4.07;;;1.63;;
55756;SDS011;41676;44.610;44.078;2022-10-31T03:29:31;2.95;;;1.77;;
55756;SDS011;41676;44.610;44.078;2022-10-31T03:39:38;13.05;;;2.47;;
55756;SDS011;41676;44.610;44.078;2022-10-31T03:44:42;3.35;;;1.88;;
55756;SDS011;41676;44.610;44.078;2022-10-31T03:49:51;11.68;;;2.30;;
55756;SDS011;41676;44.610;44.078;2022-10-31T03:54:54;9.73;;;2.30;;
55756;SDS011;41676;44.610;44.078;2022-10-31T04:00:12;10.80;;;2.35;;
55756;SDS011;41676;44.610;44.078;2022-10-31T04:05:15;13.55;;;3.00;;
55756;SDS011;41676;44.610;44.078;2022-10-31T04:10:17;12.40;;;2.60;;
55756;SDS011;41676;44.610;44.078;2022-10-31T04:15:19;7.05;;;2.25;;
55756;SDS011;41676;44.610;44.078;2022-10-31T04:20:29;9.60;;;2.78;;
55756;SDS011;41676;44.610;44.078;2022-10-31T04:25:33;14.38;;;2.83;;
55756;SDS011;41676;44.610;44.078;2022-10-31T04:30:34;5.95;;;2.40;;
55756;SDS011;41676;44.610;44.078;2022-10-31T04:35:35;8.20;;;2.55;;
55756;SDS011;41676;44.610;44.078;2022-10-31T04:40:36;8.43;;;2.65;;
55756;SDS011;41676;44.610;44.078;2022-10-31T04:45:37;12.77;;;2.85;;
55756;SDS011;41676;44.610;44.078;2022-10-31T04:50:38;5.60;;;3.10;;
55756;SDS011;41676;44.610;44.078;2022-10-31T04:55:39;6.80;;;2.83;;
55756;SDS011;41676;44.610;44.078;2022-10-31T05:00:39;4.10;;;2.13;;
55756;SDS011;41676;44.610;44.078;2022-10-31T05:05:41;10.95;;;3.25;;
55756;SDS011;41676;44.610;44.078;2022-10-31T05:10:41;13.00;;;3.85;;
55756;SDS011;41676;44.610;44.078;2022-10-31T05:15:42;15.95;;;4.32;;
55756;SDS011;41676;44.610;44.078;2022-10-31T05:20:43;8.88;;;3.85;;
55756;SDS011;41676;44.610;44.078;2022-10-31T05:25:44;13.98;;;5.35;;
55756;SDS011;41676;44.610;44.078;2022-10-31T05:30:44;7.93;;;4.10;;
55756;SDS011;41676;44.610;44.078;2022-10-31T05:35:45;6.00;;;2.47;;
55756;SDS011;41676;44.610;44.078;2022-10-31T05:40:46;8.15;;;2.25;;
55756;SDS011;41676;44.610;44.078;2022-10-31T05:45:47;6.57;;;1.90;;
55756;SDS011;41676;44.610;44.078;2022-10-31T05:50:48;12.20;;;2.72;;
55756;SDS011;41676;44.610;44.078;2022-10-31T05:55:49;4.03;;;1.90;;
55756;SDS011;41676;44.610;44.078;2022-10-31T06:00:49;4.72;;;2.25;;
55756;SDS011;41676;44.610;44.078;2022-10-31T06:05:50;7.03;;;2.38;;
55756;SDS011;41676;44.610;44.078;2022-10-31T06:10:51;5.97;;;2.47;;
55756;SDS011;41676;44.610;44.078;2022-10-31T06:15:53;4.13;;;2.17;;
55756;SDS011;41676;44.610;44.078;2022-10-31T06:20:54;7.45;;;2.25;;
55756;SDS011;41676;44.610;44.078;2022-10-31T06:25:55;6.00;;;2.55;;
55756;SDS011;41676;44.610;44.078;2022-10-31T06:30:56;4.75;;;2.83;;
55756;SDS011;41676;44.610;44.078;2022-10-31T06:35:56;7.03;;;3.08;;
55756;SDS011;41676;44.610;44.078;2022-10-31T06:40:57;16.50;;;3.33;;
55756;SDS011;41676;44.610;44.078;2022-10-31T06:46:03;5.93;;;3.70;;
55756;SDS011;41676;44.610;44.078;2022-10-31T06:51:04;5.70;;;3.45;;
55756;SDS011;41676;44.610;44.078;2022-10-31T06:56:05;7.38;;;3.97;;
55756;SDS011;41676;44.610;44.078;2022-10-31T07:01:06;9.65;;;4.13;;
55756;SDS011;41676;44.610;44.078;2022-10-31T07:06:07;6.63;;;4.03;;
55756;SDS011;41676;44.610;44.078;2022-10-31T07:11:08;17.15;;;4.63;;
55756;SDS011;41676;44.610;44.078;2022-10-31T07:16:08;10.07;;;4.60;;
55756;SDS011;41676;44.610;44.078;2022-10-31T07:21:13;9.40;;;5.88;;
55756;SDS011;41676;44.610;44.078;2022-10-31T07:26:14;10.30;;;6.70;;
55756;SDS011;41676;44.610;44.078;2022-10-31T07:31:15;13.77;;;7.88;;
55756;SDS011;41676;44.610;44.078;2022-10-31T07:36:16;11.35;;;7.55;;
55756;SDS011;41676;44.610;44.078;2022-10-31T07:41:17;17.65;;;7.75;;
55756;SDS011;41676;44.610;44.078;2022-10-31T07:46:17;15.73;;;8.77;;
55756;SDS011;41676;44.610;44.078;2022-10-31T07:51:18;12.65;;;8.30;;
55756;SDS011;41676;44.610;44.078;2022-10-31T07:56:19;11.80;;;8.20;;
55756;SDS011;41676;44.610;44.078;2022-10-31T08:01:20;21.75;;;8.77;;
55756;SDS011;41676;44.610;44.078;2022-10-31T08:06:20;12.70;;;7.82;;
55756;SDS011;41676;44.610;44.078;2022-10-31T08:11:21;12.20;;;8.10;;
55756;SDS011;41676;44.610;44.078;2022-10-31T08:16:22;14.20;;;7.97;;
55756;SDS011;41676;44.610;44.078;2022-10-31T08:21:23;17.83;;;7.80;;
55756;SDS011;41676;44.610;44.078;2022-10-31T08:26:23;10.73;;;7.30;;
55756;SDS011;41676;44.610;44.078;2022-10-31T08:31:24;12.43;;;7.90;;
55756;SDS011;41676;44.610;44.078;2022-10-31T08:36:27;12.07;;;7.70;;
55756;SDS011;41676;44.610;44.078;2022-10-31T08:41:29;12.18;;;8.02;;
55756;SDS011;41676;44.610;44.078;2022-10-31T08:46:30;12.02;;;7.10;;
55756;SDS011;41676;44.610;44.078;2022-10-31T08:51:31;15.90;;;7.65;;
55756;SDS011;41676;44.610;44.078;2022-10-31T08:56:32;11.10;;;7.40;;
55756;SDS011;41676;44.610;44.078;2022-10-31T09:01:33;14.10;;;7.22;;
55756;SDS011;41676;44.610;44.078;2022-10-31T09:06:34;11.60;;;7.45;;
55756;SDS011;41676;44.610;44.078;2022-10-31T09:11:34;13.65;;;7.95;;
55756;SDS011;41676;44.610;44.078;2022-10-31T09:16:35;17.80;;;8.20;;
55756;SDS011;41676;44.610;44.078;2022-10-31T09:21:36;11.77;;;7.85;;
55756;SDS011;41676;44.610;44.078;2022-10-31T09:26:37;12.05;;;7.88;;
55756;SDS011;41676;44.610;44.078;2022-10-31T09:31:37;9.73;;;7.45;;
55756;SDS011;41676;44.610;44.078;2022-10-31T09:36:39;16.48;;;8.00;;
55756;SDS011;41676;44.610;44.078;2022-10-31T09:42:02;13.23;;;7.75;;
55756;SDS011;41676;44.610;44.078;2022-10-31T09:47:04;11.18;;;7.07;;
55756;SDS011;41676;44.610;44.078;2022-10-31T09:52:24;14.65;;;7.03;;
55756;SDS011;41676;44.610;44.078;2022-10-31T09:57:32;12.60;;;6.43;;
55756;SDS011;41676;44.610;44.078;2022-10-31T10:02:37;10.00;;;6.53;;
55756;SDS011;41676;44.610;44.078;2022-10-31T10:07:55;12.43;;;5.97;;
55756;SDS011;41676;44.610;44.078;2022-10-31T10:23:53;11.48;;;7.28;;
55756;SDS011;41676;44.610;44.078;2022-10-31T10:40:43;13.77;;;6.20;;
55756;SDS011;41676;44.610;44.078;2022-10-31T10:45:46;13.93;;;6.20;;
55756;SDS011;41676;44.610;44.078;2022-10-31T10:51:20;8.55;;;6.20;;
55756;SDS011;41676;44.610;44.078;2022-10-31T11:01:41;10.63;;;5.40;;
55756;SDS011;41676;44.610;44.078;2022-10-31T11:06:42;14.48;;;5.53;;
55756;SDS011;41676;44.610;44.078;2022-10-31T11:11:43;10.25;;;4.88;;
55756;SDS011;41676;44.610;44.078;2022-10-31T11:16:48;7.15;;;3.97;;
55756;SDS011;41676;44.610;44.078;2022-10-31T11:21:53;8.35;;;2.80;;
55756;SDS011;41676;44.610;44.078;2022-10-31T11:27:14;8.85;;;2.20;;
55756;SDS011;41676;44.610;44.078;2022-10-31T11:32:21;3.63;;;1.70;;
55756;SDS011;41676;44.610;44.078;2022-10-31T11:37:27;7.03;;;2.05;;
55756;SDS011;41676;44.610;44.078;2022-10-31T11:42:39;2.40;;;1.38;;
55756;SDS011;41676;44.610;44.078;2022-10-31T11:47:43;6.25;;;1.60;;
55756;SDS011;41676;44.610;44.078;2022-10-31T11:52:47;6.97;;;2.03;;
55756;SDS011;41676;44.610;44.078;2022-10-31T11:57:51;2.97;;;1.60;;
55756;SDS011;41676;44.610;44.078;2022-10-31T12:08:19;4.38;;;2.83;;
55756;SDS011;41676;44.610;44.078;2022-10-31T12:40:33;4.30;;;2.00;;
55756;SDS011;41676;44.610;44.078;2022-10-31T13:01:37;8.82;;;2.80;;
55756;SDS011;41676;44.610;44.078;2022-10-31T13:06:52;8.32;;;2.92;;
55756;SDS011;41676;44.610;44.078;2022-10-31T13:12:02;12.50;;;3.90;;
55756;SDS011;41676;44.610;44.078;2022-10-31T13:17:19;33.05;;;20.83;;
55756;SDS011;41676;44.610;44.078;2022-10-31T13:28:36;12.00;;;4.93;;
55756;SDS011;41676;44.610;44.078;2022-10-31T13:33:46;15.88;;;5.00;;
55756;SDS011;41676;44.610;44.078;2022-10-31T13:49:36;2.88;;;1.40;;
55756;SDS011;41676;44.610;44.078;2022-10-31T13:54:42;2.38;;;1.00;;
55756;SDS011;41676;44.610;44.078;2022-10-31T13:59:50;5.97;;;1.42;;
55756;SDS011;41676;44.610;44.078;2022-10-31T14:04:58;4.70;;;1.88;;
55756;SDS011;41676;44.610;44.078;2022-10-31T14:10:26;6.47;;;2.10;;
55756;SDS011;41676;44.610;44.078;2022-10-31T14:15:36;8.60;;;3.30;;
55756;SDS011;41676;44.610;44.078;2022-10-31T14:20:41;5.53;;;3.60;;
55756;SDS011;41676;44.610;44.078;2022-10-31T14:25:43;7.90;;;4.18;;
55756;SDS011;41676;44.610;44.078;2022-10-31T14:30:51;7.65;;;4.10;;
55756;SDS011;41676;44.610;44.078;2022-10-31T14:36:00;7.43;;;3.30;;
55756;SDS011;41676;44.610;44.078;2022-10-31T14:52:11;7.82;;;3.35;;
55756;SDS011;41676;44.610;44.078;2022-10-31T14:57:24;8.10;;;3.47;;
55756;SDS011;41676;44.610;44.078;2022-10-31T15:13:27;6.68;;;3.47;;
55756;SDS011;41676;44.610;44.078;2022-10-31T15:18:27;10.68;;;4.20;;
55756;SDS011;41676;44.610;44.078;2022-10-31T15:23:29;6.95;;;3.47;;
55756;SDS011;41676;44.610;44.078;2022-10-31T15:28:31;9.45;;;3.97;;
55756;SDS011;41676;44.610;44.078;2022-10-31T15:33:39;10.07;;;3.80;;
55756;SDS011;41676;44.610;44.078;2022-10-31T15:38:41;10.07;;;3.90;;
55756;SDS011;41676;44.610;44.078;2022-10-31T15:43:44;10.18;;;3.80;;
55756;SDS011;41676;44.610;44.078;2022-10-31T15:48:46;9.32;;;3.80;;
55756;SDS011;41676;44.610;44.078;2022-10-31T15:53:48;9.02;;;3.85;;
55756;SDS011;41676;44.610;44.078;2022-10-31T15:58:52;11.80;;;3.40;;
55756;SDS011;41676;44.610;44.078;2022-10-31T16:09:22;7.35;;;3.22;;
55756;SDS011;41676;44.610;44.078;2022-10-31T16:14:27;17.48;;;3.75;;
55756;SDS011;41676;44.610;44.078;2022-10-31T16:19:32;6.65;;;3.47;;
55756;SDS011;41676;44.610;44.078;2022-10-31T16:24:45;10.70;;;3.13;;
55756;SDS011;41676;44.610;44.078;2022-10-31T16:29:46;10.70;;;3.38;;
55756;SDS011;41676;44.610;44.078;2022-10-31T16:34:56;5.10;;;3.20;;
55756;SDS011;41676;44.610;44.078;2022-10-31T16:39:58;6.68;;;3.05;;
55756;SDS011;41676;44.610;44.078;2022-10-31T16:44:59;9.90;;;3.42;;
55756;SDS011;41676;44.610;44.078;2022-10-31T16:50:00;8.55;;;2.83;;
55756;SDS011;41676;44.610;44.078;2022-10-31T16:55:01;10.25;;;3.38;;
55756;SDS011;41676;44.610;44.078;2022-10-31T17:00:02;11.38;;;3.00;;
55756;SDS011;41676;44.610;44.078;2022-10-31T17:05:04;7.90;;;3.35;;
55756;SDS011;41676;44.610;44.078;2022-10-31T17:10:05;9.60;;;3.28;;
55756;SDS011;41676;44.610;44.078;2022-10-31T17:15:10;13.45;;;3.45;;
55756;SDS011;41676;44.610;44.078;2022-10-31T17:20:18;7.68;;;3.10;;
55756;SDS011;41676;44.610;44.078;2022-10-31T17:25:22;6.20;;;2.92;;
55756;SDS011;41676;44.610;44.078;2022-10-31T17:30:25;4.88;;;2.30;;
55756;SDS011;41676;44.610;44.078;2022-10-31T17:35:26;4.53;;;2.20;;
55756;SDS011;41676;44.610;44.078;2022-10-31T17:40:27;5.10;;;2.13;;
55756;SDS011;41676;44.610;44.078;2022-10-31T17:45:28;4.32;;;1.92;;
55756;SDS011;41676;44.610;44.078;2022-10-31T17:50:29;5.47;;;2.20;;
55756;SDS011;41676;44.610;44.078;2022-10-31T17:55:30;7.88;;;2.00;;
55756;SDS011;41676;44.610;44.078;2022-10-31T18:00:32;4.60;;;1.48;;
55756;SDS011;41676;44.610;44.078;2022-10-31T18:05:33;8.65;;;1.63;;
55756;SDS011;41676;44.610;44.078;2022-10-31T18:10:34;3.58;;;1.20;;
55756;SDS011;41676;44.610;44.078;2022-10-31T18:15:40;3.78;;;1.10;;
55756;SDS011;41676;44.610;44.078;2022-10-31T18:20:41;3.40;;;1.03;;
55756;SDS011;41676;44.610;44.078;2022-10-31T18:25:43;3.35;;;1.10;;
55756;SDS011;41676;44.610;44.078;2022-10-31T18:30:44;0.75;;;0.30;;
55756;SDS011;41676;44.610;44.078;2022-10-31T18:35:45;6.50;;;0.40;;
55756;SDS011;41676;44.610;44.078;2022-10-31T18:40:46;0.68;;;0.20;;
55756;SDS011;41676;44.610;44.078;2022-10-31T18:45:47;0.25;;;0.10;;
55756;SDS011;41676;44.610;44.078;2022-10-31T18:50:48;1.98;;;0.17;;
55756;SDS011;41676;44.610;44.078;2022-10-31T18:55:48;4.22;;;0.30;;
55756;SDS011;41676;44.610;44.078;2022-10-31T19:00:49;0.60;;;0.20;;
55756;SDS011;41676;44.610;44.078;2022-10-31T19:05:53;0.82;;;0.22;;
55756;SDS011;41676;44.610;44.078;2022-10-31T19:10:59;0.55;;;0.20;;
55756;SDS011;41676;44.610;44.078;2022-10-31T19:16:07;5.05;;;0.50;;
55756;SDS011;41676;44.610;44.078;2022-10-31T19:21:11;1.45;;;0.10;;
55756;SDS011;41676;44.610;44.078;2022-10-31T19:26:13;1.42;;;0.60;;
55756;SDS011;41676;44.610;44.078;2022-10-31T19:31:14;0.75;;;0.30;;
55756;SDS011;41676;44.610;44.078;2022-10-31T19:36:15;1.17;;;0.13;;
55756;SDS011;41676;44.610;44.078;2022-10-31T19:41:19;0.90;;;0.25;;
55756;SDS011;41676;44.610;44.078;2022-10-31T19:46:22;1.83;;;0.70;;
55756;SDS011;41676;44.610;44.078;2022-10-31T19:51:23;1.38;;;0.40;;
55756;SDS011;41676;44.610;44.078;2022-10-31T19:56:24;0.52;;;0.28;;
55756;SDS011;41676;44.610;44.078;2022-10-31T20:01:25;0.63;;;0.30;;
55756;SDS011;41676;44.610;44.078;2022-10-31T20:06:27;2.85;;;0.40;;
55756;SDS011;41676;44.610;44.078;2022-10-31T20:11:32;0.70;;;0.20;;
55756;SDS011;41676;44.610;44.078;2022-10-31T20:16:36;1.30;;;0.33;;
55756;SDS011;41676;44.610;44.078;2022-10-31T20:21:38;2.00;;;0.77;;
55756;SDS011;41676;44.610;44.078;2022-10-31T20:26:40;0.60;;;0.30;;
55756;SDS011;41676;44.610;44.078;2022-10-31T20:31:41;1.30;;;0.47;;
55756;SDS011;41676;44.610;44.078;2022-10-31T20:36:43;3.47;;;0.57;;
55756;SDS011;41676;44.610;44.078;2022-10-31T20:41:44;1.08;;;0.40;;
55756;SDS011;41676;44.610;44.078;2022-10-31T20:46:45;3.97;;;1.58;;
55756;SDS011;41676;44.610;44.078;2022-10-31T20:51:46;1.38;;;0.40;;
55756;SDS011;41676;44.610;44.078;2022-10-31T20:56:47;1.23;;;0.30;;
55756;SDS011;41676;44.610;44.078;2022-10-31T21:01:48;1.00;;;0.38;;
55756;SDS011;41676;44.610;44.078;2022-10-31T21:06:49;2.10;;;0.52;;
55756;SDS011;41676;44.610;44.078;2022-10-31T21:11:50;0.60;;;0.25;;
55756;SDS011;41676;44.610;44.078;2022-10-31T21:16:50;0.82;;;0.38;;
55756;SDS011;41676;44.610;44.078;2022-10-31T21:21:51;1.17;;;0.40;;
55756;SDS011;41676;44.610;44.078;2022-10-31T21:26:52;0.55;;;0.30;;
55756;SDS011;41676;44.610;44.078;2022-10-31T21:31:53;1.35;;;0.40;;
55756;SDS011;41676;44.610;44.078;2022-10-31T21:36:54;1.30;;;0.57;;
55756;SDS011;41676;44.610;44.078;2022-10-31T21:41:55;4.97;;;0.50;;
55756;SDS011;41676;44.610;44.078;2022-10-31T21:46:56;3.50;;;0.50;;
55756;SDS011;41676;44.610;44.078;2022-10-31T21:51:57;1.33;;;0.30;;
55756;SDS011;41676;44.610;44.078;2022-10-31T21:56:58;2.30;;;0.40;;
55756;SDS011;41676;44.610;44.078;2022-10-31T22:02:01;1.15;;;0.43;;
55756;SDS011;41676;44.610;44.078;2022-10-31T22:07:02;1.45;;;0.50;;
55756;SDS011;41676;44.610;44.078;2022-10-31T22:12:03;1.20;;;0.50;;
55756;SDS011;41676;44.610;44.078;2022-10-31T22:17:06;1.25;;;0.45;;
55756;SDS011;41676;44.610;44.078;2022-10-31T22:22:07;4.82;;;0.40;;
55756;SDS011;41676;44.610;44.078;2022-10-31T22:27:07;1.73;;;0.45;;
55756;SDS011;41676;44.610;44.078;2022-10-31T22:32:08;1.52;;;0.43;;
55756;SDS011;41676;44.610;44.078;2022-10-31T22:37:09;1.15;;;0.43;;
55756;SDS011;41676;44.610;44.078;2022-10-31T22:42:10;2.30;;;0.60;;
55756;SDS011;41676;44.610;44.078;2022-10-31T22:47:10;1.98;;;0.75;;
55756;SDS011;41676;44.610;44.078;2022-10-31T22:52:11;1.63;;;0.60;;
55756;SDS011;41676;44.610;44.078;2022-10-31T22:57:12;1.48;;;0.60;;
55756;SDS011;41676;44.610;44.078;2022-10-31T23:02:13;2.97;;;0.95;;
55756;SDS011;41676;44.610;44.078;2022-10-31T23:07:14;2.40;;;0.93;;
55756;SDS011;41676;44.610;44.078;2022-10-31T23:12:14;2.38;;;1.10;;
55756;SDS011;41676;44.610;44.078;2022-10-31T23:17:34;2.60;;;1.40;;
55756;SDS011;41676;44.610;44.078;2022-10-31T23:22:34;3.03;;;1.30;;
55756;SDS011;41676;44.610;44.078;2022-10-31T23:27:35;1.83;;;1.10;;
55756;SDS011;41676;44.610;44.078;2022-10-31T23:32:36;4.13;;;1.30;;
55756;SDS011;41676;44.610;44.078;2022-10-31T23:37:37;2.25;;;0.85;;
55756;SDS011;41676;44.610;44.078;2022-10-31T23:42:38;3.38;;;0.80;;
55756;SDS011;41676;44.610;44.078;2022-10-31T23:47:39;4.00;;;0.75;;
55756;SDS011;41676;44.610;44.078;2022-10-31T23:52:39;3.65;;;0.60;;
55756;SDS011;41676;44.610;44.078;2022-10-31T23:57:40;1.52;;;0.50;;
